createdAt,value
2023-04-11T00:00:27.582Z,1.93
2023-04-11T00:03:14.629Z,1.88
2023-04-11T00:05:44.976Z,1.94
2023-04-11T00:08:14.585Z,1.87
2023-04-11T00:10:45.783Z,1.80
2023-04-11T00:13:15.493Z,1.76
2023-04-11T00:15:46.965Z,1.79
2023-04-11T00:18:17.304Z,1.78
2023-04-11T00:20:47.307Z,1.74
2023-04-11T00:23:16.969Z,1.71
2023-04-11T00:25:46.966Z,1.77
2023-04-11T00:28:17.640Z,1.76
2023-04-11T00:30:49.228Z,1.69
2023-04-11T00:33:19.047Z,1.63
2023-04-11T00:35:49.097Z,1.66
2023-04-11T00:38:18.824Z,1.65
2023-04-11T00:40:49.046Z,1.61
2023-04-11T00:43:18.734Z,1.63
2023-04-11T00:45:50.426Z,1.58
2023-04-11T00:48:20.262Z,1.53
2023-04-11T00:50:50.338Z,1.58
2023-04-11T00:53:20.179Z,1.54
2023-04-11T00:55:51.672Z,1.49
2023-04-11T00:58:21.950Z,1.49
2023-04-11T01:00:53.472Z,1.44
2023-04-11T01:03:23.320Z,1.46
2023-04-11T01:05:54.814Z,1.47
2023-04-11T01:08:24.652Z,1.40
2023-04-11T01:10:55.304Z,1.39
2023-04-11T01:13:25.201Z,1.33
2023-04-11T01:15:56.901Z,1.32
2023-04-11T01:18:27.104Z,1.25
2023-04-11T01:20:57.712Z,1.20
2023-04-11T01:23:29.161Z,1.19
2023-04-11T01:25:59.147Z,1.25
2023-04-11T01:28:28.966Z,1.27
2023-04-11T01:30:59.206Z,1.26
2023-04-11T01:33:29.207Z,1.33
2023-04-11T01:35:59.406Z,1.29
2023-04-11T01:38:30.657Z,1.26
2023-04-11T01:41:01.651Z,1.27
2023-04-11T01:43:31.422Z,1.16
2023-04-11T01:46:01.496Z,1.11
2023-04-11T01:48:31.545Z,1.15
2023-04-11T01:51:01.617Z,1.17
2023-04-11T01:53:32.820Z,1.13
2023-04-11T01:56:02.778Z,1.10
2023-04-11T01:58:32.428Z,1.10
2023-04-11T02:01:02.659Z,1.06
2023-04-11T02:03:32.543Z,1.07
2023-04-11T02:06:05.530Z,1.12
2023-04-11T02:08:36.641Z,1.12
2023-04-11T02:11:08.402Z,1.11
2023-04-11T02:13:38.229Z,1.07
2023-04-11T02:16:09.486Z,1.08
2023-04-11T02:18:39.536Z,1.07
2023-04-11T02:21:09.524Z,1.05
2023-04-11T02:23:40.697Z,1.04
2023-04-11T02:26:10.920Z,1.07
2023-04-11T02:28:40.533Z,1.11
2023-04-11T02:31:10.597Z,1.09
2023-04-11T02:33:40.303Z,0.98
2023-04-11T02:36:12.771Z,0.94
2023-04-11T02:38:44.004Z,1.02
2023-04-11T02:41:14.073Z,1.03
2023-04-11T02:43:43.944Z,1.00
2023-04-11T02:46:14.059Z,0.99
2023-04-11T02:48:46.428Z,0.97
2023-04-11T02:51:17.133Z,0.86
2023-04-11T02:53:48.312Z,0.68
2023-04-11T02:56:21.765Z,0.54
2023-04-11T02:58:56.296Z,0.43
2023-04-11T03:01:29.654Z,0.32
2023-04-11T03:03:59.824Z,0.30
2023-04-11T03:06:40.368Z,0.37
2023-04-11T03:09:12.059Z,0.38
2023-04-11T03:11:42.138Z,0.34
2023-04-11T03:14:11.984Z,0.37
2023-04-11T03:16:42.121Z,0.35
2023-04-11T03:19:12.028Z,0.33
2023-04-11T03:21:42.121Z,0.42
2023-04-11T03:24:13.767Z,0.46
2023-04-11T03:26:45.140Z,0.44
2023-04-11T03:29:17.974Z,0.42
2023-04-11T03:32:03.020Z,0.38
2023-04-11T03:34:36.266Z,0.27
2023-04-11T03:37:09.145Z,0.28
2023-04-11T03:39:42.450Z,0.39
2023-04-11T03:42:12.986Z,0.40
2023-04-11T03:44:43.062Z,0.41
2023-04-11T03:47:13.513Z,0.32
2023-04-11T03:49:45.806Z,0.30
2023-04-11T03:52:18.214Z,0.30
2023-04-11T03:54:52.119Z,0.08
2023-04-11T03:57:22.449Z,0.18
2023-04-11T03:59:52.121Z,0.23
2023-04-11T04:02:22.362Z,0.08
2023-04-11T04:04:58.619Z,0.10
2023-04-11T04:07:33.116Z,0.19
2023-04-11T04:10:17.044Z,0.31
2023-04-11T04:12:52.078Z,0.32
2023-04-11T04:15:24.129Z,0.28
2023-04-11T04:17:55.028Z,0.30
2023-04-11T04:20:40.662Z,0.36
2023-04-11T04:23:14.293Z,0.41
2023-04-11T04:26:08.449Z,0.47
2023-04-11T04:28:41.123Z,0.50
2023-04-11T04:31:11.222Z,0.53
2023-04-11T04:33:44.385Z,0.59
2023-04-11T04:36:25.197Z,0.58
2023-04-11T04:38:58.028Z,0.57
2023-04-11T04:41:36.673Z,0.63
2023-04-11T04:44:09.972Z,0.77
2023-04-11T04:46:44.922Z,0.92
2023-04-11T04:49:15.068Z,0.98
2023-04-11T04:51:44.679Z,1.08
2023-04-11T04:54:14.848Z,1.14
2023-04-11T04:56:45.962Z,1.21
2023-04-11T04:59:16.784Z,1.33
2023-04-11T05:01:52.081Z,1.46
2023-04-11T05:04:28.625Z,1.50
2023-04-11T05:07:01.994Z,1.67
2023-04-11T05:09:34.161Z,1.78
2023-04-11T05:12:14.249Z,1.89
2023-04-11T05:14:47.946Z,2.04
2023-04-11T05:17:17.902Z,2.17
2023-04-11T05:19:48.305Z,2.30
2023-04-11T05:22:18.330Z,2.48
2023-04-11T05:24:52.387Z,2.65
2023-04-11T05:27:23.647Z,2.87
2023-04-11T05:29:54.468Z,3.08
2023-04-11T05:32:24.222Z,3.25
2023-04-11T05:34:58.158Z,3.46
2023-04-11T05:37:46.435Z,3.68
2023-04-11T05:40:16.530Z,3.87
2023-04-11T05:42:47.617Z,4.05
2023-04-11T05:45:17.790Z,4.25
2023-04-11T05:47:47.741Z,4.38
2023-04-11T05:50:18.410Z,4.52
2023-04-11T05:52:48.224Z,4.64
2023-04-11T05:55:20.160Z,4.82
2023-04-11T05:57:51.444Z,5.01
2023-04-11T06:00:21.983Z,5.18
2023-04-11T06:02:52.307Z,5.34
2023-04-11T06:05:22.444Z,5.51
2023-04-11T06:07:52.733Z,5.64
2023-04-11T06:10:22.937Z,5.92
2023-04-11T06:12:54.370Z,6.05
2023-04-11T06:15:25.411Z,6.23
2023-04-11T06:17:55.262Z,6.59
2023-04-11T06:20:26.081Z,6.79
2023-04-11T06:22:57.223Z,7.09
2023-04-11T06:25:27.464Z,7.39
2023-04-11T06:27:58.612Z,7.58
2023-04-11T06:30:28.825Z,7.82
2023-04-11T06:32:58.685Z,8.01
2023-04-11T06:35:28.773Z,8.09
2023-04-11T06:37:58.584Z,8.24
2023-04-11T06:40:28.470Z,8.51
2023-04-11T06:43:01.324Z,8.77
2023-04-11T06:45:31.831Z,8.95
2023-04-11T06:48:01.922Z,9.14
2023-04-11T06:50:32.040Z,9.07
2023-04-11T06:53:02.057Z,9.00
2023-04-11T06:55:32.347Z,9.09
2023-04-11T06:58:03.778Z,9.27
2023-04-11T07:00:34.000Z,9.30
2023-04-11T07:03:08.043Z,9.22
2023-04-11T07:05:39.658Z,9.34
2023-04-11T07:08:09.618Z,9.61
2023-04-11T07:10:39.730Z,9.90
2023-04-11T07:13:10.874Z,10.02
2023-04-11T07:15:41.025Z,10.32
2023-04-11T07:20:41.684Z,10.99
2023-04-11T07:23:11.428Z,11.19
2023-04-11T07:25:41.445Z,11.42
2023-04-11T07:28:12.714Z,11.79
2023-04-11T07:30:42.968Z,11.96
2023-04-11T07:33:12.757Z,12.24
2023-04-11T07:35:42.709Z,12.41
2023-04-11T07:38:12.928Z,12.74
2023-04-11T07:40:42.878Z,12.77
2023-04-11T07:43:14.215Z,12.98
2023-04-11T07:45:44.665Z,13.07
2023-04-11T07:48:14.243Z,13.11
2023-04-11T07:50:44.417Z,13.36
2023-04-11T07:53:14.331Z,13.53
2023-04-11T07:55:45.069Z,13.43
2023-04-11T07:58:16.292Z,13.59
2023-04-11T08:00:46.632Z,13.62
2023-04-11T08:03:17.174Z,13.89
2023-04-11T08:05:47.734Z,14.14
2023-04-11T08:08:17.517Z,14.12
2023-04-11T08:10:48.581Z,13.84
2023-04-11T08:13:21.012Z,14.01
2023-04-11T08:15:51.000Z,14.04
2023-04-11T08:18:22.118Z,14.09
2023-04-11T08:20:52.254Z,14.30
2023-04-11T08:23:23.135Z,14.43
2023-04-11T08:25:53.290Z,14.59
2023-04-11T08:28:24.460Z,14.82
2023-04-11T08:30:55.753Z,15.05
2023-04-11T08:33:26.487Z,15.12
2023-04-11T08:35:56.548Z,14.93
2023-04-11T08:38:26.173Z,14.93
2023-04-11T08:40:56.687Z,15.08
2023-04-11T08:43:27.905Z,15.14
2023-04-11T08:45:57.933Z,15.09
2023-04-11T08:48:28.724Z,15.17
2023-04-11T08:50:58.708Z,15.24
2023-04-11T08:53:28.999Z,14.98
2023-04-11T08:56:00.131Z,14.86
2023-04-11T08:58:32.495Z,14.77
2023-04-11T09:01:25.939Z,14.68
2023-04-11T09:03:56.015Z,14.50
2023-04-11T09:06:27.205Z,14.69
2023-04-11T09:08:57.077Z,15.00
2023-04-11T09:11:27.738Z,15.11
2023-04-11T09:14:09.826Z,15.34
2023-04-11T09:16:54.877Z,15.82
2023-04-11T09:19:25.141Z,16.53
2023-04-11T09:21:55.594Z,16.18
2023-04-11T09:24:26.684Z,16.12
2023-04-11T09:27:07.893Z,16.62
2023-04-11T09:29:39.997Z,16.57
2023-04-11T09:32:29.245Z,17.12
2023-04-11T09:35:17.298Z,17.78
2023-04-11T09:37:48.458Z,17.54
2023-04-11T09:40:18.866Z,16.91
2023-04-11T09:42:49.980Z,17.31
2023-04-11T09:45:22.129Z,17.02
2023-04-11T09:47:53.073Z,17.12
2023-04-11T09:50:23.209Z,16.93
2023-04-11T09:52:57.772Z,17.13
2023-04-11T09:55:28.861Z,16.79
2023-04-11T09:58:00.500Z,16.25
2023-04-11T10:00:32.790Z,16.17
2023-04-11T10:03:03.135Z,16.18
2023-04-11T10:05:33.458Z,16.15
2023-04-11T10:08:05.679Z,16.32
2023-04-11T10:10:35.820Z,16.21
2023-04-11T10:13:38.107Z,15.90
2023-04-11T10:16:13.794Z,15.96
2023-04-11T10:19:04.766Z,16.41
2023-04-11T10:21:41.298Z,16.70
2023-04-11T10:24:14.789Z,16.33
2023-04-11T10:26:50.338Z,16.10
2023-04-11T10:29:41.140Z,16.28
2023-04-11T10:32:12.798Z,15.91
2023-04-11T10:35:04.644Z,15.97
2023-04-11T10:37:34.790Z,15.84
2023-04-11T10:40:09.253Z,16.02
2023-04-11T10:42:39.898Z,16.26
2023-04-11T10:45:16.597Z,16.28
2023-04-11T10:48:02.225Z,16.23
2023-04-11T10:50:37.883Z,16.48
2023-04-11T10:53:08.232Z,16.49
2023-04-11T10:55:46.341Z,16.20
2023-04-11T10:58:17.225Z,16.12
2023-04-11T11:01:05.945Z,16.13
2023-04-11T11:03:38.413Z,16.12
2023-04-11T11:06:09.746Z,16.20
2023-04-11T11:08:42.116Z,16.19
2023-04-11T11:11:12.690Z,16.18
2023-04-11T11:13:42.936Z,16.05
2023-04-11T11:16:16.012Z,15.99
2023-04-11T11:18:51.053Z,16.13
2023-04-11T11:24:12.690Z,16.43
2023-04-11T11:26:43.135Z,16.59
2023-04-11T11:29:13.592Z,16.43
2023-04-11T11:31:45.976Z,16.40
2023-04-11T11:34:28.267Z,16.31
2023-04-11T11:36:59.267Z,16.09
2023-04-11T11:39:29.884Z,16.19
2023-04-11T11:42:00.153Z,16.12
2023-04-11T11:44:30.242Z,15.92
2023-04-11T11:47:03.547Z,16.21
2023-04-11T11:49:48.045Z,16.23
2023-04-11T11:52:32.496Z,16.37
2023-04-11T11:55:02.634Z,15.98
2023-04-11T11:57:32.836Z,16.09
2023-04-11T12:00:06.324Z,15.98
2023-04-11T12:02:37.434Z,16.00
2023-04-11T12:05:09.675Z,16.14
2023-04-11T12:07:40.124Z,15.97
2023-04-11T12:10:12.134Z,15.81
2023-04-11T12:12:43.363Z,15.81
2023-04-11T12:15:14.061Z,16.00
2023-04-11T12:17:44.831Z,15.88
2023-04-11T12:20:16.608Z,16.08
2023-04-11T12:22:46.788Z,16.30
2023-04-11T12:25:16.847Z,16.41
2023-04-11T12:27:47.616Z,16.45
2023-04-11T12:30:17.356Z,16.58
2023-04-11T12:32:47.524Z,16.61
2023-04-11T12:35:18.849Z,16.87
2023-04-11T12:37:49.111Z,17.00
2023-04-11T12:40:18.936Z,16.78
2023-04-11T12:42:56.838Z,16.98
2023-04-11T12:45:27.230Z,17.22
2023-04-11T12:47:57.440Z,16.49
2023-04-11T12:50:30.788Z,16.40
2023-04-11T12:53:01.090Z,16.48
2023-04-11T12:55:31.352Z,16.22
2023-04-11T12:58:02.264Z,16.15
2023-04-11T13:00:32.114Z,16.25
2023-04-11T13:03:04.961Z,16.26
2023-04-11T13:05:37.392Z,16.18
2023-04-11T13:08:08.372Z,16.01
2023-04-11T13:10:38.018Z,16.03
2023-04-11T13:13:18.011Z,16.24
2023-04-11T13:15:48.848Z,16.02
2023-04-11T13:18:19.070Z,15.91
2023-04-11T13:20:50.178Z,15.85
2023-04-11T13:23:20.680Z,15.73
2023-04-11T13:25:50.726Z,15.85
2023-04-11T13:28:22.021Z,16.41
2023-04-11T13:30:52.402Z,16.14
2023-04-11T13:33:22.760Z,16.16
2023-04-11T13:35:53.860Z,16.15
2023-04-11T13:38:24.367Z,15.96
2023-04-11T13:40:54.100Z,15.92
2023-04-11T13:43:24.211Z,15.81
2023-04-11T13:45:54.154Z,15.73
2023-04-11T13:48:24.346Z,15.67
2023-04-11T13:50:57.783Z,15.59
2023-04-11T13:53:28.277Z,15.56
2023-04-11T13:55:57.932Z,15.60
2023-04-11T13:58:27.974Z,15.57
2023-04-11T14:00:58.115Z,15.52
2023-04-11T14:03:33.462Z,15.49
2023-04-11T14:06:05.101Z,15.58
2023-04-11T14:08:35.197Z,15.58
2023-04-11T14:11:05.173Z,15.56
2023-04-11T14:13:35.368Z,15.52
2023-04-11T14:16:09.369Z,15.43
2023-04-11T14:18:40.022Z,15.41
2023-04-11T14:21:11.343Z,15.38
2023-04-11T14:23:41.801Z,15.37
2023-04-11T14:26:11.776Z,15.30
2023-04-11T14:28:42.480Z,15.35
2023-04-11T14:31:12.358Z,15.28
2023-04-11T14:33:43.102Z,15.29
2023-04-11T14:36:14.744Z,15.24
2023-04-11T14:38:44.960Z,15.22
2023-04-11T14:41:14.657Z,15.26
2023-04-11T14:43:44.933Z,15.29
2023-04-11T14:46:14.778Z,15.30
2023-04-11T14:48:45.168Z,15.30
2023-04-11T14:51:16.688Z,15.24
2023-04-11T14:53:56.701Z,15.13
2023-04-11T15:59:47.254Z,14.81
2023-04-11T16:02:17.532Z,14.75
2023-04-11T16:04:51.254Z,14.72
2023-04-11T16:07:24.035Z,14.70
2023-04-11T16:09:53.685Z,14.64
2023-04-11T16:12:23.608Z,14.63
2023-04-11T16:14:56.794Z,14.60
2023-04-11T16:17:27.139Z,14.54
2023-04-11T16:19:57.099Z,14.51
2023-04-11T16:22:28.589Z,14.51
2023-04-11T16:24:59.647Z,14.47
2023-04-11T16:27:31.031Z,14.42
2023-04-11T16:30:05.971Z,14.34
2023-04-11T16:32:36.282Z,14.33
2023-04-11T16:35:06.296Z,14.28
2023-04-11T16:37:36.740Z,14.24
2023-04-11T16:40:11.774Z,14.19
2023-04-11T16:42:44.108Z,14.14
2023-04-11T16:45:16.523Z,14.09
2023-04-11T16:47:49.780Z,14.09
2023-04-11T16:50:20.766Z,13.48
2023-04-11T16:52:51.499Z,12.97
2023-04-11T16:55:22.046Z,12.55
2023-04-11T16:57:53.310Z,12.37
2023-04-11T17:00:24.841Z,12.31
2023-04-11T17:02:57.912Z,12.10
2023-04-11T17:05:28.938Z,12.03
2023-04-11T17:08:03.756Z,11.76
2023-04-11T17:10:35.170Z,11.65
2023-04-11T17:13:07.994Z,11.53
2023-04-11T17:15:41.895Z,11.38
2023-04-11T17:18:17.002Z,11.31
2023-04-11T17:20:50.287Z,11.08
2023-04-11T17:23:39.001Z,10.99
2023-04-11T17:26:18.559Z,10.76
2023-04-11T17:28:56.532Z,10.62
2023-04-11T17:31:30.747Z,10.41
2023-04-11T17:34:06.743Z,10.25
2023-04-11T17:36:43.211Z,10.11
2023-04-11T17:39:20.266Z,10.09
2023-04-11T17:41:50.658Z,9.90
2023-04-11T17:44:29.982Z,9.86
2023-04-11T17:47:07.626Z,9.85
2023-04-11T17:49:37.627Z,9.72
2023-04-11T17:52:07.448Z,9.61
2023-04-11T17:54:40.518Z,9.59
2023-04-11T17:57:12.678Z,9.58
2023-04-11T17:59:46.965Z,9.56
2023-04-11T18:02:21.539Z,9.44
2023-04-11T18:04:55.063Z,9.36
2023-04-11T18:07:30.615Z,9.27
2023-04-11T18:10:04.819Z,9.18
2023-04-11T18:12:39.076Z,9.10
2023-04-11T18:15:12.668Z,9.06
2023-04-11T18:17:47.306Z,9.07
2023-04-11T18:20:22.602Z,9.02
2023-04-11T18:22:58.746Z,9.09
2023-04-11T18:25:30.435Z,9.07
2023-04-11T18:28:02.726Z,9.05
2023-04-11T18:30:36.613Z,8.98
2023-04-11T18:33:11.992Z,9.08
2023-04-11T18:35:48.546Z,9.12
2023-04-11T18:38:21.037Z,9.00
2023-04-11T18:40:56.065Z,8.93
2023-04-11T18:43:28.414Z,8.78
2023-04-11T18:46:00.963Z,8.44
2023-04-11T18:48:33.657Z,8.72
2023-04-11T18:51:05.507Z,8.60
2023-04-11T18:53:38.973Z,8.58
2023-04-11T18:56:11.987Z,8.44
2023-04-11T18:58:46.529Z,8.36
2023-04-11T19:01:19.161Z,8.38
2023-04-11T19:03:50.535Z,8.35
2023-04-11T19:06:21.324Z,8.35
2023-04-11T19:08:55.456Z,8.25
2023-04-11T19:11:26.499Z,8.29
2023-04-11T19:14:00.123Z,8.25
2023-04-11T19:16:30.798Z,8.18
2023-04-11T19:19:02.106Z,8.21
2023-04-11T19:21:32.446Z,8.15
2023-04-11T19:24:03.564Z,8.09
2023-04-11T19:26:34.593Z,8.04
2023-04-11T19:29:06.386Z,8.03
2023-04-11T19:31:38.369Z,8.02
2023-04-11T19:34:11.141Z,7.98
2023-04-11T19:36:45.445Z,8.00
2023-04-11T19:39:16.159Z,7.96
2023-04-11T19:41:48.665Z,7.93
2023-04-11T19:44:20.880Z,7.91
2023-04-11T19:46:53.402Z,7.85
2023-04-11T19:49:26.524Z,7.84
2023-04-11T19:51:58.514Z,7.80
2023-04-11T19:54:31.790Z,7.58
2023-04-11T19:57:04.953Z,7.54
2023-04-11T19:59:36.340Z,7.50
2023-04-11T20:02:09.427Z,7.45
2023-04-11T20:04:43.957Z,7.37
2023-04-11T20:07:17.127Z,7.33
2023-04-11T20:09:48.328Z,7.31
2023-04-11T20:12:22.166Z,7.30
2023-04-11T20:14:54.879Z,7.28
2023-04-11T20:17:27.094Z,7.25
2023-04-11T20:20:06.826Z,7.28
2023-04-11T20:22:39.660Z,7.20
2023-04-11T20:25:12.249Z,7.17
2023-04-11T20:27:45.720Z,7.23
2023-04-11T20:30:17.957Z,7.23
2023-04-11T20:32:48.049Z,7.13
2023-04-11T20:35:22.225Z,7.12
2023-04-11T20:37:55.628Z,7.03
2023-04-11T20:40:28.137Z,7.04
2023-04-11T20:43:02.157Z,6.97
2023-04-11T20:45:34.226Z,6.95
2023-04-11T20:48:07.286Z,6.95
2023-04-11T20:50:42.606Z,6.95
2023-04-11T20:53:14.850Z,6.88
2023-04-11T20:55:46.551Z,6.83
2023-04-11T20:58:19.292Z,6.95
2023-04-11T21:00:52.025Z,6.89
2023-04-11T21:03:24.606Z,6.84
2023-04-11T21:05:56.623Z,6.81
2023-04-11T21:08:26.794Z,6.79
2023-04-11T21:10:56.616Z,6.83
2023-04-11T21:13:26.847Z,6.75
2023-04-11T21:15:56.611Z,6.72
2023-04-11T21:18:26.702Z,6.74
2023-04-11T21:20:57.834Z,6.70
2023-04-11T21:23:27.864Z,6.72
2023-04-11T21:25:57.471Z,6.74
2023-04-11T21:28:27.444Z,6.73
2023-04-11T21:30:57.117Z,6.72
2023-04-11T21:33:27.047Z,6.76
2023-04-11T21:35:58.349Z,6.75
2023-04-11T21:38:28.414Z,6.72
2023-04-11T21:40:58.303Z,6.78
2023-04-11T21:43:29.202Z,6.85
2023-04-11T21:45:59.385Z,6.89
2023-04-11T21:48:29.264Z,6.81
2023-04-11T21:51:00.756Z,6.89
2023-04-11T21:53:31.007Z,6.95
2023-04-11T21:56:00.659Z,6.94
2023-04-11T21:58:30.679Z,6.94
2023-04-11T22:01:01.300Z,6.91
2023-04-11T22:03:31.728Z,6.92
2023-04-11T22:06:03.136Z,6.87
2023-04-11T22:08:33.310Z,6.82
2023-04-11T22:11:03.017Z,6.84
2023-04-11T22:13:32.879Z,6.79
2023-04-11T22:16:05.758Z,6.84
2023-04-11T22:18:47.798Z,6.86
2023-04-11T22:21:20.149Z,6.84
2023-04-11T22:23:54.931Z,6.87
2023-04-11T22:26:26.886Z,6.86
2023-04-11T22:28:57.676Z,6.77
2023-04-11T22:31:30.809Z,6.69
2023-04-11T22:34:00.818Z,6.74
2023-04-11T22:36:36.010Z,6.81
2023-04-11T22:39:06.420Z,6.83
2023-04-11T22:41:38.739Z,6.83
2023-04-11T22:44:08.664Z,6.77
2023-04-11T22:46:39.090Z,6.75
2023-04-11T22:49:10.336Z,6.73
2023-04-11T22:51:41.479Z,6.69
2023-04-11T22:54:13.638Z,6.65
2023-04-11T22:56:43.246Z,6.63
2023-04-11T22:59:13.194Z,6.62
2023-04-11T23:01:45.018Z,6.63
2023-04-11T23:04:15.098Z,6.62
2023-04-11T23:06:48.892Z,6.60
2023-04-11T23:09:19.230Z,6.59
2023-04-11T23:11:49.107Z,6.61
2023-04-11T23:14:21.371Z,6.60
2023-04-11T23:16:50.936Z,6.58
2023-04-11T23:19:21.363Z,6.57
2023-04-11T23:21:52.312Z,6.60
2023-04-11T23:24:22.321Z,6.64
2023-04-11T23:26:51.875Z,6.61
2023-04-11T23:29:21.810Z,6.55
2023-04-11T23:31:51.709Z,6.58
2023-04-11T23:34:21.519Z,6.57
2023-04-11T23:36:53.063Z,6.54
2023-04-11T23:39:23.134Z,6.51
2023-04-11T23:41:53.510Z,6.53
2023-04-11T23:44:23.460Z,6.53
2023-04-11T23:46:53.009Z,6.52
2023-04-11T23:49:22.888Z,6.55
2023-04-11T23:51:53.959Z,6.58
2023-04-11T23:54:23.925Z,6.61
2023-04-11T23:56:53.494Z,6.55
2023-04-11T23:59:23.422Z,6.52
